sensor_id;sensor_type;location;lat;lon;timestamp;P1;durP1;ratioP1;P2;durP2;ratioP2
9838;SDS011;4958;48.150;11.506;2023-01-04T00:01:10;6.60;;;5.90;;
9838;SDS011;4958;48.150;11.506;2023-01-04T00:03:38;5.97;;;5.37;;
9838;SDS011;4958;48.150;11.506;2023-01-04T00:06:05;6.23;;;5.43;;
9838;SDS011;4958;48.150;11.506;2023-01-04T00:08:33;5.80;;;5.20;;
9838;SDS011;4958;48.150;11.506;2023-01-04T00:10:59;5.60;;;5.10;;
9838;SDS011;4958;48.150;11.506;2023-01-04T00:13:27;5.60;;;5.07;;
9838;SDS011;4958;48.150;11.506;2023-01-04T00:15:56;5.80;;;5.30;;
9838;SDS011;4958;48.150;11.506;2023-01-04T00:18:22;5.60;;;5.10;;
9838;SDS011;4958;48.150;11.506;2023-01-04T00:20:48;5.93;;;5.10;;
9838;SDS011;4958;48.150;11.506;2023-01-04T00:23:15;5.43;;;4.93;;
9838;SDS011;4958;48.150;11.506;2023-01-04T00:25:41;5.80;;;5.30;;
9838;SDS011;4958;48.150;11.506;2023-01-04T00:28:08;5.60;;;5.10;;
9838;SDS011;4958;48.150;11.506;2023-01-04T00:30:34;5.57;;;5.07;;
9838;SDS011;4958;48.150;11.506;2023-01-04T00:33:03;5.67;;;5.03;;
9838;SDS011;4958;48.150;11.506;2023-01-04T00:35:30;8.10;;;5.50;;
9838;SDS011;4958;48.150;11.506;2023-01-04T00:37:56;5.93;;;5.37;;
9838;SDS011;4958;48.150;11.506;2023-01-04T00:40:22;6.40;;;5.80;;
9838;SDS011;4958;48.150;11.506;2023-01-04T00:42:49;5.83;;;5.03;;
9838;SDS011;4958;48.150;11.506;2023-01-04T00:45:15;5.13;;;4.63;;
9838;SDS011;4958;48.150;11.506;2023-01-04T00:47:42;5.40;;;4.90;;
9838;SDS011;4958;48.150;11.506;2023-01-04T00:50:10;5.00;;;4.50;;
9838;SDS011;4958;48.150;11.506;2023-01-04T00:52:36;4.97;;;4.50;;
9838;SDS011;4958;48.150;11.506;2023-01-04T00:55:03;5.20;;;4.70;;
9838;SDS011;4958;48.150;11.506;2023-01-04T00:57:29;5.07;;;4.57;;
9838;SDS011;4958;48.150;11.506;2023-01-04T00:59:56;5.27;;;4.77;;
9838;SDS011;4958;48.150;11.506;2023-01-04T01:02:22;4.80;;;4.40;;
9838;SDS011;4958;48.150;11.506;2023-01-04T01:04:48;5.27;;;4.70;;
9838;SDS011;4958;48.150;11.506;2023-01-04T01:07:16;4.60;;;4.10;;
9838;SDS011;4958;48.150;11.506;2023-01-04T01:09:42;6.07;;;4.37;;
9838;SDS011;4958;48.150;11.506;2023-01-04T01:12:09;4.67;;;4.27;;
9838;SDS011;4958;48.150;11.506;2023-01-04T01:14:35;4.93;;;4.47;;
9838;SDS011;4958;48.150;11.506;2023-01-04T01:17:02;4.60;;;4.20;;
9838;SDS011;4958;48.150;11.506;2023-01-04T01:19:28;4.73;;;4.33;;
9838;SDS011;4958;48.150;11.506;2023-01-04T01:21:56;5.27;;;4.00;;
9838;SDS011;4958;48.150;11.506;2023-01-04T01:24:24;5.10;;;4.60;;
9838;SDS011;4958;48.150;11.506;2023-01-04T01:26:52;5.17;;;4.13;;
9838;SDS011;4958;48.150;11.506;2023-01-04T01:29:18;4.90;;;4.40;;
9838;SDS011;4958;48.150;11.506;2023-01-04T01:31:45;5.47;;;4.97;;
9838;SDS011;4958;48.150;11.506;2023-01-04T01:34:11;5.60;;;5.00;;
9838;SDS011;4958;48.150;11.506;2023-01-04T01:36:38;5.37;;;4.87;;
9838;SDS011;4958;48.150;11.506;2023-01-04T01:39:05;6.10;;;5.20;;
9838;SDS011;4958;48.150;11.506;2023-01-04T01:41:33;6.60;;;5.57;;
9838;SDS011;4958;48.150;11.506;2023-01-04T01:44:01;6.00;;;5.40;;
9838;SDS011;4958;48.150;11.506;2023-01-04T01:46:30;5.83;;;5.33;;
9838;SDS011;4958;48.150;11.506;2023-01-04T01:49:02;6.80;;;6.20;;
9838;SDS011;4958;48.150;11.506;2023-01-04T01:51:30;6.80;;;6.10;;
9838;SDS011;4958;48.150;11.506;2023-01-04T01:54:00;6.80;;;6.10;;
9838;SDS011;4958;48.150;11.506;2023-01-04T01:56:29;6.47;;;5.87;;
9838;SDS011;4958;48.150;11.506;2023-01-04T01:59:00;6.53;;;5.93;;
9838;SDS011;4958;48.150;11.506;2023-01-04T02:01:28;6.27;;;5.67;;
9838;SDS011;4958;48.150;11.506;2023-01-04T02:03:56;6.57;;;5.97;;
9838;SDS011;4958;48.150;11.506;2023-01-04T02:06:24;6.30;;;5.70;;
9838;SDS011;4958;48.150;11.506;2023-01-04T02:08:55;7.87;;;7.07;;
9838;SDS011;4958;48.150;11.506;2023-01-04T02:11:22;7.90;;;7.10;;
9838;SDS011;4958;48.150;11.506;2023-01-04T02:13:49;8.57;;;7.67;;
9838;SDS011;4958;48.150;11.506;2023-01-04T02:16:39;8.20;;;7.40;;
9838;SDS011;4958;48.150;11.506;2023-01-04T02:19:22;8.67;;;7.23;;
9838;SDS011;4958;48.150;11.506;2023-01-04T02:25:03;8.33;;;7.43;;
9838;SDS011;4958;48.150;11.506;2023-01-04T02:27:47;8.50;;;7.17;;
9838;SDS011;4958;48.150;11.506;2023-01-04T02:33:35;7.90;;;7.00;;
9838;SDS011;4958;48.150;11.506;2023-01-04T02:36:09;7.63;;;6.83;;
9838;SDS011;4958;48.150;11.506;2023-01-04T02:38:45;7.93;;;7.13;;
9838;SDS011;4958;48.150;11.506;2023-01-04T02:41:28;7.23;;;6.53;;
9838;SDS011;4958;48.150;11.506;2023-01-04T02:44:01;7.83;;;7.03;;
9838;SDS011;4958;48.150;11.506;2023-01-04T02:46:52;7.47;;;6.47;;
9838;SDS011;4958;48.150;11.506;2023-01-04T02:49:25;7.33;;;6.63;;
9838;SDS011;4958;48.150;11.506;2023-01-04T02:52:09;6.20;;;5.60;;
9838;SDS011;4958;48.150;11.506;2023-01-04T02:54:35;6.93;;;6.23;;
9838;SDS011;4958;48.150;11.506;2023-01-04T02:57:10;6.50;;;5.90;;
9838;SDS011;4958;48.150;11.506;2023-01-04T02:59:53;6.20;;;5.60;;
9838;SDS011;4958;48.150;11.506;2023-01-04T03:02:31;6.30;;;5.70;;
9838;SDS011;4958;48.150;11.506;2023-01-04T03:05:34;6.17;;;5.57;;
9838;SDS011;4958;48.150;11.506;2023-01-04T03:08:26;6.97;;;6.27;;
9838;SDS011;4958;48.150;11.506;2023-01-04T03:10:57;6.47;;;5.80;;
9838;SDS011;4958;48.150;11.506;2023-01-04T03:13:27;7.00;;;6.30;;
9838;SDS011;4958;48.150;11.506;2023-01-04T03:15:58;6.40;;;5.80;;
9838;SDS011;4958;48.150;11.506;2023-01-04T03:18:30;6.33;;;5.73;;
9838;SDS011;4958;48.150;11.506;2023-01-04T03:21:02;7.00;;;6.30;;
9838;SDS011;4958;48.150;11.506;2023-01-04T03:23:31;7.07;;;6.37;;
9838;SDS011;4958;48.150;11.506;2023-01-04T03:26:19;7.20;;;6.50;;
9838;SDS011;4958;48.150;11.506;2023-01-04T03:29:09;6.50;;;5.90;;
9838;SDS011;4958;48.150;11.506;2023-01-04T03:32:00;8.00;;;6.00;;
9838;SDS011;4958;48.150;11.506;2023-01-04T03:34:47;7.10;;;6.40;;
9838;SDS011;4958;48.150;11.506;2023-01-04T03:37:34;6.17;;;5.57;;
9838;SDS011;4958;48.150;11.506;2023-01-04T03:40:11;6.73;;;6.03;;
9838;SDS011;4958;48.150;11.506;2023-01-04T03:43:07;6.77;;;6.17;;
9838;SDS011;4958;48.150;11.506;2023-01-04T03:45:58;6.60;;;6.00;;
9838;SDS011;4958;48.150;11.506;2023-01-04T03:48:49;6.60;;;5.90;;
9838;SDS011;4958;48.150;11.506;2023-01-04T03:51:22;7.17;;;6.47;;
9838;SDS011;4958;48.150;11.506;2023-01-04T03:53:54;7.13;;;6.43;;
9838;SDS011;4958;48.150;11.506;2023-01-04T03:56:24;6.83;;;6.17;;
9838;SDS011;4958;48.150;11.506;2023-01-04T03:58:53;6.77;;;6.10;;
9838;SDS011;4958;48.150;11.506;2023-01-04T04:01:20;6.97;;;6.20;;
9838;SDS011;4958;48.150;11.506;2023-01-04T04:03:49;7.10;;;6.40;;
9838;SDS011;4958;48.150;11.506;2023-01-04T04:06:33;6.43;;;5.83;;
9838;SDS011;4958;48.150;11.506;2023-01-04T04:09:18;5.63;;;5.10;;
9838;SDS011;4958;48.150;11.506;2023-01-04T04:11:45;6.23;;;5.63;;
9838;SDS011;4958;48.150;11.506;2023-01-04T04:14:11;6.37;;;5.77;;
9838;SDS011;4958;48.150;11.506;2023-01-04T04:16:38;6.40;;;5.80;;
9838;SDS011;4958;48.150;11.506;2023-01-04T04:19:04;6.03;;;5.47;;
9838;SDS011;4958;48.150;11.506;2023-01-04T04:21:31;5.77;;;5.27;;
9838;SDS011;4958;48.150;11.506;2023-01-04T04:23:57;5.50;;;4.97;;
9838;SDS011;4958;48.150;11.506;2023-01-04T04:26:25;5.73;;;5.23;;
9838;SDS011;4958;48.150;11.506;2023-01-04T04:28:51;6.00;;;5.40;;
9838;SDS011;4958;48.150;11.506;2023-01-04T04:31:18;5.53;;;5.03;;
9838;SDS011;4958;48.150;11.506;2023-01-04T04:33:44;5.53;;;5.03;;
9838;SDS011;4958;48.150;11.506;2023-01-04T04:36:11;6.10;;;5.50;;
9838;SDS011;4958;48.150;11.506;2023-01-04T04:38:37;5.20;;;4.73;;
9838;SDS011;4958;48.150;11.506;2023-01-04T04:41:07;4.77;;;4.37;;
9838;SDS011;4958;48.150;11.506;2023-01-04T04:43:53;4.87;;;4.37;;
9838;SDS011;4958;48.150;11.506;2023-01-04T04:46:20;3.93;;;3.57;;
9838;SDS011;4958;48.150;11.506;2023-01-04T04:48:47;4.10;;;3.70;;
9838;SDS011;4958;48.150;11.506;2023-01-04T04:51:13;3.70;;;3.40;;
9838;SDS011;4958;48.150;11.506;2023-01-04T04:53:39;3.73;;;3.27;;
9838;SDS011;4958;48.150;11.506;2023-01-04T04:56:06;3.50;;;3.20;;
9838;SDS011;4958;48.150;11.506;2023-01-04T04:58:33;3.40;;;3.10;;
9838;SDS011;4958;48.150;11.506;2023-01-04T05:01:01;3.20;;;2.90;;
9838;SDS011;4958;48.150;11.506;2023-01-04T05:03:28;3.40;;;3.10;;
9838;SDS011;4958;48.150;11.506;2023-01-04T05:05:55;3.50;;;3.20;;
9838;SDS011;4958;48.150;11.506;2023-01-04T05:08:21;3.23;;;2.93;;
9838;SDS011;4958;48.150;11.506;2023-01-04T05:10:50;3.40;;;3.10;;
9838;SDS011;4958;48.150;11.506;2023-01-04T05:13:17;3.03;;;2.83;;
9838;SDS011;4958;48.150;11.506;2023-01-04T05:15:43;3.40;;;3.10;;
9838;SDS011;4958;48.150;11.506;2023-01-04T05:18:12;2.90;;;2.60;;
9838;SDS011;4958;48.150;11.506;2023-01-04T05:20:40;3.30;;;2.87;;
9838;SDS011;4958;48.150;11.506;2023-01-04T05:23:07;2.70;;;2.50;;
9838;SDS011;4958;48.150;11.506;2023-01-04T05:25:35;2.80;;;2.60;;
9838;SDS011;4958;48.150;11.506;2023-01-04T05:28:01;2.80;;;2.60;;
9838;SDS011;4958;48.150;11.506;2023-01-04T05:30:28;3.07;;;2.87;;
9838;SDS011;4958;48.150;11.506;2023-01-04T05:33:13;2.87;;;2.53;;
9838;SDS011;4958;48.150;11.506;2023-01-04T05:35:40;3.00;;;2.57;;
9838;SDS011;4958;48.150;11.506;2023-01-04T05:38:06;2.83;;;2.20;;
9838;SDS011;4958;48.150;11.506;2023-01-04T05:40:33;2.60;;;2.40;;
9838;SDS011;4958;48.150;11.506;2023-01-04T05:42:59;2.63;;;2.43;;
9838;SDS011;4958;48.150;11.506;2023-01-04T05:45:26;2.77;;;2.53;;
9838;SDS011;4958;48.150;11.506;2023-01-04T05:47:53;2.80;;;2.60;;
9838;SDS011;4958;48.150;11.506;2023-01-04T05:50:21;2.80;;;2.50;;
9838;SDS011;4958;48.150;11.506;2023-01-04T05:52:49;2.50;;;2.30;;
9838;SDS011;4958;48.150;11.506;2023-01-04T05:55:17;2.80;;;2.60;;
9838;SDS011;4958;48.150;11.506;2023-01-04T05:57:43;2.80;;;2.60;;
9838;SDS011;4958;48.150;11.506;2023-01-04T06:00:10;2.70;;;2.27;;
9838;SDS011;4958;48.150;11.506;2023-01-04T06:02:38;2.70;;;2.50;;
9838;SDS011;4958;48.150;11.506;2023-01-04T06:05:04;3.20;;;2.77;;
9838;SDS011;4958;48.150;11.506;2023-01-04T06:07:33;2.90;;;2.70;;
9838;SDS011;4958;48.150;11.506;2023-01-04T06:09:59;2.93;;;2.67;;
9838;SDS011;4958;48.150;11.506;2023-01-04T06:12:25;3.40;;;2.90;;
9838;SDS011;4958;48.150;11.506;2023-01-04T06:14:52;3.13;;;2.70;;
9838;SDS011;4958;48.150;11.506;2023-01-04T06:17:18;2.90;;;2.70;;
9838;SDS011;4958;48.150;11.506;2023-01-04T06:19:45;2.60;;;2.40;;
9838;SDS011;4958;48.150;11.506;2023-01-04T06:22:11;3.07;;;2.77;;
9838;SDS011;4958;48.150;11.506;2023-01-04T06:24:40;2.87;;;2.67;;
9838;SDS011;4958;48.150;11.506;2023-01-04T06:27:06;2.80;;;2.60;;
9838;SDS011;4958;48.150;11.506;2023-01-04T06:29:33;2.60;;;2.40;;
9838;SDS011;4958;48.150;11.506;2023-01-04T06:31:59;2.83;;;2.60;;
9838;SDS011;4958;48.150;11.506;2023-01-04T06:34:25;2.70;;;2.50;;
9838;SDS011;4958;48.150;11.506;2023-01-04T06:36:52;2.97;;;2.67;;
9838;SDS011;4958;48.150;11.506;2023-01-04T06:39:18;5.03;;;3.40;;
9838;SDS011;4958;48.150;11.506;2023-01-04T06:41:48;2.60;;;2.40;;
9838;SDS011;4958;48.150;11.506;2023-01-04T06:44:14;11.30;;;9.80;;
9838;SDS011;4958;48.150;11.506;2023-01-04T06:46:41;31.27;;;24.53;;
9838;SDS011;4958;48.150;11.506;2023-01-04T06:49:07;8.63;;;5.13;;
9838;SDS011;4958;48.150;11.506;2023-01-04T06:51:34;2.77;;;2.57;;
9838;SDS011;4958;48.150;11.506;2023-01-04T06:54:00;2.40;;;2.20;;
9838;SDS011;4958;48.150;11.506;2023-01-04T06:56:27;2.57;;;2.37;;
9838;SDS011;4958;48.150;11.506;2023-01-04T06:58:56;2.70;;;2.50;;
9838;SDS011;4958;48.150;11.506;2023-01-04T07:01:22;2.50;;;2.30;;
9838;SDS011;4958;48.150;11.506;2023-01-04T07:03:49;1.93;;;1.83;;
9838;SDS011;4958;48.150;11.506;2023-01-04T07:06:15;2.00;;;1.90;;
9838;SDS011;4958;48.150;11.506;2023-01-04T07:08:42;2.23;;;2.03;;
9838;SDS011;4958;48.150;11.506;2023-01-04T07:11:08;3.00;;;2.30;;
9838;SDS011;4958;48.150;11.506;2023-01-04T07:13:35;2.30;;;2.10;;
9838;SDS011;4958;48.150;11.506;2023-01-04T07:16:03;2.80;;;2.40;;
9838;SDS011;4958;48.150;11.506;2023-01-04T07:18:30;2.67;;;2.47;;
9838;SDS011;4958;48.150;11.506;2023-01-04T07:20:56;2.20;;;2.10;;
9838;SDS011;4958;48.150;11.506;2023-01-04T07:23:22;2.40;;;2.20;;
9838;SDS011;4958;48.150;11.506;2023-01-04T07:25:49;2.47;;;2.27;;
9838;SDS011;4958;48.150;11.506;2023-01-04T07:28:15;2.40;;;2.20;;
9838;SDS011;4958;48.150;11.506;2023-01-04T07:31:04;3.83;;;2.43;;
9838;SDS011;4958;48.150;11.506;2023-01-04T07:33:31;2.30;;;2.10;;
9838;SDS011;4958;48.150;11.506;2023-01-04T07:36:01;2.30;;;2.10;;
9838;SDS011;4958;48.150;11.506;2023-01-04T07:38:29;2.60;;;2.37;;
9838;SDS011;4958;48.150;11.506;2023-01-04T07:40:55;2.67;;;2.00;;
9838;SDS011;4958;48.150;11.506;2023-01-04T07:43:22;2.40;;;2.20;;
9838;SDS011;4958;48.150;11.506;2023-01-04T07:45:48;2.80;;;2.10;;
9838;SDS011;4958;48.150;11.506;2023-01-04T07:48:16;2.80;;;2.50;;
9838;SDS011;4958;48.150;11.506;2023-01-04T07:50:43;2.40;;;2.20;;
9838;SDS011;4958;48.150;11.506;2023-01-04T07:53:09;2.60;;;2.40;;
9838;SDS011;4958;48.150;11.506;2023-01-04T07:55:36;2.47;;;2.27;;
9838;SDS011;4958;48.150;11.506;2023-01-04T07:58:03;2.30;;;2.10;;
9838;SDS011;4958;48.150;11.506;2023-01-04T08:00:29;2.30;;;2.10;;
9838;SDS011;4958;48.150;11.506;2023-01-04T08:02:56;2.40;;;2.20;;
9838;SDS011;4958;48.150;11.506;2023-01-04T08:05:23;3.10;;;2.50;;
9838;SDS011;4958;48.150;11.506;2023-01-04T08:07:50;2.37;;;2.17;;
9838;SDS011;4958;48.150;11.506;2023-01-04T08:10:17;4.10;;;3.70;;
9838;SDS011;4958;48.150;11.506;2023-01-04T08:12:45;2.40;;;2.20;;
9838;SDS011;4958;48.150;11.506;2023-01-04T08:15:16;2.30;;;2.10;;
9838;SDS011;4958;48.150;11.506;2023-01-04T08:17:43;1.87;;;1.77;;
9838;SDS011;4958;48.150;11.506;2023-01-04T08:20:10;2.23;;;2.03;;
9838;SDS011;4958;48.150;11.506;2023-01-04T08:22:41;1.90;;;1.80;;
9838;SDS011;4958;48.150;11.506;2023-01-04T08:25:07;1.87;;;1.77;;
9838;SDS011;4958;48.150;11.506;2023-01-04T08:27:35;1.90;;;1.80;;
9838;SDS011;4958;48.150;11.506;2023-01-04T08:30:01;1.70;;;1.60;;
9838;SDS011;4958;48.150;11.506;2023-01-04T08:32:31;2.10;;;1.90;;
9838;SDS011;4958;48.150;11.506;2023-01-04T08:34:57;1.93;;;1.77;;
9838;SDS011;4958;48.150;11.506;2023-01-04T08:37:24;2.23;;;2.00;;
9838;SDS011;4958;48.150;11.506;2023-01-04T08:39:52;2.40;;;1.80;;
9838;SDS011;4958;48.150;11.506;2023-01-04T08:42:18;1.83;;;1.60;;
9838;SDS011;4958;48.150;11.506;2023-01-04T08:44:46;1.67;;;1.57;;
9838;SDS011;4958;48.150;11.506;2023-01-04T08:47:14;1.83;;;1.73;;
9838;SDS011;4958;48.150;11.506;2023-01-04T08:49:43;1.87;;;1.67;;
9838;SDS011;4958;48.150;11.506;2023-01-04T08:52:10;1.70;;;1.57;;
9838;SDS011;4958;48.150;11.506;2023-01-04T08:54:39;1.73;;;1.63;;
9838;SDS011;4958;48.150;11.506;2023-01-04T08:57:07;1.77;;;1.63;;
9838;SDS011;4958;48.150;11.506;2023-01-04T08:59:34;1.57;;;1.47;;
9838;SDS011;4958;48.150;11.506;2023-01-04T09:02:00;3.20;;;1.70;;
9838;SDS011;4958;48.150;11.506;2023-01-04T09:04:27;1.60;;;1.50;;
9838;SDS011;4958;48.150;11.506;2023-01-04T09:06:53;1.60;;;1.50;;
9838;SDS011;4958;48.150;11.506;2023-01-04T09:09:19;2.17;;;1.70;;
9838;SDS011;4958;48.150;11.506;2023-01-04T09:11:46;1.70;;;1.60;;
9838;SDS011;4958;48.150;11.506;2023-01-04T09:14:14;1.53;;;1.43;;
9838;SDS011;4958;48.150;11.506;2023-01-04T09:16:40;1.50;;;1.40;;
9838;SDS011;4958;48.150;11.506;2023-01-04T09:19:07;3.83;;;1.70;;
9838;SDS011;4958;48.150;11.506;2023-01-04T09:21:34;1.70;;;1.60;;
9838;SDS011;4958;48.150;11.506;2023-01-04T09:24:00;1.70;;;1.57;;
9838;SDS011;4958;48.150;11.506;2023-01-04T09:26:27;2.13;;;1.63;;
9838;SDS011;4958;48.150;11.506;2023-01-04T09:28:54;3.40;;;2.17;;
9838;SDS011;4958;48.150;11.506;2023-01-04T09:31:23;2.07;;;1.87;;
9838;SDS011;4958;48.150;11.506;2023-01-04T09:33:50;1.63;;;1.53;;
9838;SDS011;4958;48.150;11.506;2023-01-04T09:36:17;1.70;;;1.57;;
9838;SDS011;4958;48.150;11.506;2023-01-04T09:38:44;1.63;;;1.53;;
9838;SDS011;4958;48.150;11.506;2023-01-04T09:41:17;1.60;;;1.50;;
9838;SDS011;4958;48.150;11.506;2023-01-04T09:43:50;1.60;;;1.50;;
9838;SDS011;4958;48.150;11.506;2023-01-04T09:46:20;1.60;;;1.50;;
9838;SDS011;4958;48.150;11.506;2023-01-04T09:48:54;1.60;;;1.50;;
9838;SDS011;4958;48.150;11.506;2023-01-04T09:51:37;2.57;;;1.67;;
9838;SDS011;4958;48.150;11.506;2023-01-04T09:54:09;1.50;;;1.40;;
9838;SDS011;4958;48.150;11.506;2023-01-04T09:56:41;1.90;;;1.80;;
9838;SDS011;4958;48.150;11.506;2023-01-04T09:59:13;1.60;;;1.50;;
9838;SDS011;4958;48.150;11.506;2023-01-04T10:01:44;1.50;;;1.40;;
9838;SDS011;4958;48.150;11.506;2023-01-04T10:04:15;1.50;;;1.40;;
9838;SDS011;4958;48.150;11.506;2023-01-04T10:06:48;1.60;;;1.50;;
9838;SDS011;4958;48.150;11.506;2023-01-04T10:09:16;3.60;;;2.67;;
9838;SDS011;4958;48.150;11.506;2023-01-04T10:14:54;3.60;;;1.40;;
9838;SDS011;4958;48.150;11.506;2023-01-04T10:17:32;1.70;;;1.60;;
9838;SDS011;4958;48.150;11.506;2023-01-04T10:20:27;1.40;;;1.30;;
9838;SDS011;4958;48.150;11.506;2023-01-04T10:23:07;2.27;;;1.40;;
9838;SDS011;4958;48.150;11.506;2023-01-04T10:25:44;1.50;;;1.40;;
9838;SDS011;4958;48.150;11.506;2023-01-04T10:28:21;2.10;;;1.23;;
9838;SDS011;4958;48.150;11.506;2023-01-04T10:30:59;1.30;;;1.20;;
9838;SDS011;4958;48.150;11.506;2023-01-04T10:33:33;1.23;;;1.10;;
9838;SDS011;4958;48.150;11.506;2023-01-04T10:36:12;5.73;;;1.30;;
9838;SDS011;4958;48.150;11.506;2023-01-04T10:38:47;1.30;;;1.20;;
9838;SDS011;4958;48.150;11.506;2023-01-04T10:41:20;1.20;;;1.10;;
9838;SDS011;4958;48.150;11.506;2023-01-04T10:43:54;1.47;;;1.27;;
9838;SDS011;4958;48.150;11.506;2023-01-04T10:46:29;2.20;;;1.20;;
9838;SDS011;4958;48.150;11.506;2023-01-04T10:49:02;1.00;;;1.00;;
9838;SDS011;4958;48.150;11.506;2023-01-04T10:51:33;2.10;;;1.20;;
9838;SDS011;4958;48.150;11.506;2023-01-04T10:54:07;1.30;;;1.20;;
9838;SDS011;4958;48.150;11.506;2023-01-04T10:56:42;1.40;;;1.20;;
9838;SDS011;4958;48.150;11.506;2023-01-04T10:59:17;1.23;;;1.13;;
9838;SDS011;4958;48.150;11.506;2023-01-04T11:01:47;1.47;;;1.20;;
9838;SDS011;4958;48.150;11.506;2023-01-04T11:04:22;1.30;;;1.20;;
9838;SDS011;4958;48.150;11.506;2023-01-04T11:06:52;1.20;;;1.10;;
9838;SDS011;4958;48.150;11.506;2023-01-04T11:09:22;3.13;;;1.93;;
9838;SDS011;4958;48.150;11.506;2023-01-04T11:11:52;1.40;;;1.23;;
9838;SDS011;4958;48.150;11.506;2023-01-04T11:14:21;1.00;;;0.93;;
9838;SDS011;4958;48.150;11.506;2023-01-04T11:16:50;1.77;;;1.10;;
9838;SDS011;4958;48.150;11.506;2023-01-04T11:19:21;1.53;;;1.00;;
9838;SDS011;4958;48.150;11.506;2023-01-04T11:21:49;1.30;;;1.03;;
9838;SDS011;4958;48.150;11.506;2023-01-04T11:24:21;1.33;;;1.23;;
9838;SDS011;4958;48.150;11.506;2023-01-04T11:26:48;0.80;;;0.80;;
9838;SDS011;4958;48.150;11.506;2023-01-04T11:29:23;1.40;;;1.20;;
9838;SDS011;4958;48.150;11.506;2023-01-04T11:31:54;1.10;;;1.00;;
9838;SDS011;4958;48.150;11.506;2023-01-04T11:37:22;1.40;;;0.87;;
9838;SDS011;4958;48.150;11.506;2023-01-04T11:42:43;2.50;;;1.27;;
9838;SDS011;4958;48.150;11.506;2023-01-04T11:45:15;2.30;;;1.03;;
9838;SDS011;4958;48.150;11.506;2023-01-04T11:47:47;2.20;;;1.00;;
9838;SDS011;4958;48.150;11.506;2023-01-04T11:53:27;1.00;;;0.90;;
9838;SDS011;4958;48.150;11.506;2023-01-04T11:56:09;1.00;;;0.90;;
9838;SDS011;4958;48.150;11.506;2023-01-04T11:58:41;0.80;;;0.80;;
9838;SDS011;4958;48.150;11.506;2023-01-04T12:01:18;1.10;;;1.00;;
9838;SDS011;4958;48.150;11.506;2023-01-04T12:03:46;0.80;;;0.80;;
9838;SDS011;4958;48.150;11.506;2023-01-04T12:06:13;0.80;;;0.80;;
9838;SDS011;4958;48.150;11.506;2023-01-04T12:08:44;2.17;;;1.17;;
9838;SDS011;4958;48.150;11.506;2023-01-04T12:11:16;1.83;;;0.90;;
9838;SDS011;4958;48.150;11.506;2023-01-04T12:13:47;0.93;;;0.93;;
9838;SDS011;4958;48.150;11.506;2023-01-04T12:16:16;0.90;;;0.90;;
9838;SDS011;4958;48.150;11.506;2023-01-04T12:18:50;2.10;;;0.80;;
9838;SDS011;4958;48.150;11.506;2023-01-04T12:21:18;2.00;;;0.80;;
9838;SDS011;4958;48.150;11.506;2023-01-04T12:23:48;1.30;;;0.90;;
9838;SDS011;4958;48.150;11.506;2023-01-04T12:26:16;2.40;;;0.90;;
9838;SDS011;4958;48.150;11.506;2023-01-04T12:28:43;1.20;;;0.87;;
9838;SDS011;4958;48.150;11.506;2023-01-04T12:31:28;1.47;;;0.93;;
9838;SDS011;4958;48.150;11.506;2023-01-04T12:33:56;0.80;;;0.70;;
9838;SDS011;4958;48.150;11.506;2023-01-04T12:36:52;4.20;;;0.90;;
9838;SDS011;4958;48.150;11.506;2023-01-04T12:42:15;0.97;;;0.80;;
9838;SDS011;4958;48.150;11.506;2023-01-04T12:47:42;0.70;;;0.70;;
9838;SDS011;4958;48.150;11.506;2023-01-04T12:50:30;0.77;;;0.77;;
9838;SDS011;4958;48.150;11.506;2023-01-04T12:52:58;1.80;;;0.75;;
9838;SDS011;4958;48.150;11.506;2023-01-04T12:58:39;1.00;;;0.70;;
9838;SDS011;4958;48.150;11.506;2023-01-04T13:01:09;1.27;;;0.80;;
9838;SDS011;4958;48.150;11.506;2023-01-04T13:03:48;1.37;;;0.80;;
9838;SDS011;4958;48.150;11.506;2023-01-04T13:06:20;1.67;;;0.97;;
9838;SDS011;4958;48.150;11.506;2023-01-04T13:08:48;0.60;;;0.60;;
9838;SDS011;4958;48.150;11.506;2023-01-04T13:11:23;0.70;;;0.70;;
9838;SDS011;4958;48.150;11.506;2023-01-04T13:14:12;10.70;;;7.93;;
9838;SDS011;4958;48.150;11.506;2023-01-04T13:16:46;1.13;;;0.90;;
9838;SDS011;4958;48.150;11.506;2023-01-04T13:19:19;0.60;;;0.60;;
9838;SDS011;4958;48.150;11.506;2023-01-04T13:21:50;2.50;;;0.90;;
9838;SDS011;4958;48.150;11.506;2023-01-04T13:24:21;0.60;;;0.60;;
9838;SDS011;4958;48.150;11.506;2023-01-04T13:26:50;1.37;;;0.50;;
9838;SDS011;4958;48.150;11.506;2023-01-04T13:29:19;1.37;;;0.60;;
9838;SDS011;4958;48.150;11.506;2023-01-04T13:31:54;0.70;;;0.70;;
9838;SDS011;4958;48.150;11.506;2023-01-04T13:34:23;0.80;;;0.80;;
9838;SDS011;4958;48.150;11.506;2023-01-04T13:36:58;0.77;;;0.70;;
9838;SDS011;4958;48.150;11.506;2023-01-04T13:39:32;0.70;;;0.70;;
9838;SDS011;4958;48.150;11.506;2023-01-04T13:42:00;1.13;;;0.70;;
9838;SDS011;4958;48.150;11.506;2023-01-04T13:44:38;0.70;;;0.70;;
9838;SDS011;4958;48.150;11.506;2023-01-04T13:47:21;2.27;;;0.70;;
9838;SDS011;4958;48.150;11.506;2023-01-04T13:49:47;0.60;;;0.60;;
9838;SDS011;4958;48.150;11.506;2023-01-04T13:52:19;0.90;;;0.70;;
9838;SDS011;4958;48.150;11.506;2023-01-04T13:54:46;0.70;;;0.70;;
9838;SDS011;4958;48.150;11.506;2023-01-04T13:57:15;0.77;;;0.70;;
9838;SDS011;4958;48.150;11.506;2023-01-04T13:59:45;1.43;;;0.70;;
9838;SDS011;4958;48.150;11.506;2023-01-04T14:02:14;0.60;;;0.60;;
9838;SDS011;4958;48.150;11.506;2023-01-04T14:04:43;1.40;;;1.20;;
9838;SDS011;4958;48.150;11.506;2023-01-04T14:07:10;1.13;;;1.03;;
9838;SDS011;4958;48.150;11.506;2023-01-04T14:09:41;0.97;;;0.90;;
9838;SDS011;4958;48.150;11.506;2023-01-04T14:12:13;2.00;;;0.93;;
9838;SDS011;4958;48.150;11.506;2023-01-04T14:14:47;1.40;;;1.07;;
9838;SDS011;4958;48.150;11.506;2023-01-04T14:17:28;1.83;;;0.80;;
9838;SDS011;4958;48.150;11.506;2023-01-04T14:19:59;1.90;;;1.00;;
9838;SDS011;4958;48.150;11.506;2023-01-04T14:28:34;1.00;;;0.80;;
9838;SDS011;4958;48.150;11.506;2023-01-04T14:31:19;0.73;;;0.60;;
9838;SDS011;4958;48.150;11.506;2023-01-04T14:33:49;0.60;;;0.60;;
9838;SDS011;4958;48.150;11.506;2023-01-04T14:36:19;6.53;;;1.33;;
9838;SDS011;4958;48.150;11.506;2023-01-04T14:38:55;0.70;;;0.70;;
9838;SDS011;4958;48.150;11.506;2023-01-04T14:41:36;1.83;;;0.90;;
9838;SDS011;4958;48.150;11.506;2023-01-04T14:44:09;1.57;;;1.00;;
9838;SDS011;4958;48.150;11.506;2023-01-04T14:46:37;1.30;;;1.20;;
9838;SDS011;4958;48.150;11.506;2023-01-04T14:49:05;1.97;;;1.53;;
9838;SDS011;4958;48.150;11.506;2023-01-04T14:51:33;2.30;;;1.30;;
9838;SDS011;4958;48.150;11.506;2023-01-04T14:54:02;1.33;;;1.10;;
9838;SDS011;4958;48.150;11.506;2023-01-04T14:56:29;4.60;;;1.13;;
9838;SDS011;4958;48.150;11.506;2023-01-04T14:58:55;1.10;;;1.00;;
9838;SDS011;4958;48.150;11.506;2023-01-04T15:01:23;1.47;;;1.00;;
9838;SDS011;4958;48.150;11.506;2023-01-04T15:03:49;2.00;;;1.10;;
9838;SDS011;4958;48.150;11.506;2023-01-04T15:06:16;0.80;;;0.80;;
9838;SDS011;4958;48.150;11.506;2023-01-04T15:08:42;0.67;;;0.67;;
9838;SDS011;4958;48.150;11.506;2023-01-04T15:11:09;1.00;;;0.90;;
9838;SDS011;4958;48.150;11.506;2023-01-04T15:13:37;0.90;;;0.70;;
9838;SDS011;4958;48.150;11.506;2023-01-04T15:16:05;0.60;;;0.60;;
9838;SDS011;4958;48.150;11.506;2023-01-04T15:18:33;0.83;;;0.60;;
9838;SDS011;4958;48.150;11.506;2023-01-04T15:21:00;0.60;;;0.60;;
9838;SDS011;4958;48.150;11.506;2023-01-04T15:23:27;0.63;;;0.63;;
9838;SDS011;4958;48.150;11.506;2023-01-04T15:25:54;0.60;;;0.60;;
9838;SDS011;4958;48.150;11.506;2023-01-04T15:28:20;1.13;;;0.83;;
9838;SDS011;4958;48.150;11.506;2023-01-04T15:30:50;1.57;;;1.43;;
9838;SDS011;4958;48.150;11.506;2023-01-04T15:33:16;0.90;;;0.80;;
9838;SDS011;4958;48.150;11.506;2023-01-04T15:35:44;0.60;;;0.60;;
9838;SDS011;4958;48.150;11.506;2023-01-04T15:38:10;0.70;;;0.60;;
9838;SDS011;4958;48.150;11.506;2023-01-04T15:40:39;1.33;;;0.63;;
9838;SDS011;4958;48.150;11.506;2023-01-04T15:43:05;0.60;;;0.60;;
9838;SDS011;4958;48.150;11.506;2023-01-04T15:45:33;0.60;;;0.60;;
9838;SDS011;4958;48.150;11.506;2023-01-04T15:48:01;1.70;;;0.60;;
9838;SDS011;4958;48.150;11.506;2023-01-04T15:50:28;2.53;;;0.70;;
9838;SDS011;4958;48.150;11.506;2023-01-04T15:52:56;0.60;;;0.60;;